sensor_id;sensor_type;location;lat;lon;timestamp;pressure;altitude;pressure_sealevel;temperature;humidity
49377;BME280;35253;34.688;33.040;2023-08-06T00:00:17;100212.41;;;30.16;100.00
49377;BME280;35253;34.688;33.040;2023-08-06T00:02:43;100207.75;;;30.16;100.00
49377;BME280;35253;34.688;33.040;2023-08-06T00:05:08;100208.22;;;30.13;100.00
49377;BME280;35253;34.688;33.040;2023-08-06T00:07:34;100206.16;;;30.09;100.00
49377;BME280;35253;34.688;33.040;2023-08-06T00:09:59;100205.38;;;30.02;100.00
49377;BME280;35253;34.688;33.040;2023-08-06T00:12:25;100195.09;;;29.97;100.00
49377;BME280;35253;34.688;33.040;2023-08-06T00:14:51;100199.97;;;29.95;100.00
49377;BME280;35253;34.688;33.040;2023-08-06T00:17:17;100205.50;;;29.88;100.00
49377;BME280;35253;34.688;33.040;2023-08-06T00:19:43;100213.59;;;29.83;100.00
49377;BME280;35253;34.688;33.040;2023-08-06T00:22:09;100208.16;;;29.77;100.00
49377;BME280;35253;34.688;33.040;2023-08-06T00:24:35;100204.38;;;29.71;100.00
49377;BME280;35253;34.688;33.040;2023-08-06T00:27:01;100215.25;;;29.84;100.00
49377;BME280;35253;34.688;33.040;2023-08-06T00:29:26;100216.59;;;29.75;100.00
49377;BME280;35253;34.688;33.040;2023-08-06T00:31:52;100215.84;;;29.68;100.00
49377;BME280;35253;34.688;33.040;2023-08-06T00:34:18;100212.94;;;29.63;100.00
49377;BME280;35253;34.688;33.040;2023-08-06T00:36:43;100210.81;;;29.65;100.00
49377;BME280;35253;34.688;33.040;2023-08-06T00:39:09;100207.00;;;29.66;100.00
49377;BME280;35253;34.688;33.040;2023-08-06T00:41:35;100201.50;;;29.66;100.00
49377;BME280;35253;34.688;33.040;2023-08-06T00:44:00;100197.50;;;29.62;100.00
49377;BME280;35253;34.688;33.040;2023-08-06T00:46:26;100205.16;;;29.60;100.00
49377;BME280;35253;34.688;33.040;2023-08-06T00:48:53;100204.38;;;29.53;100.00
49377;BME280;35253;34.688;33.040;2023-08-06T00:51:19;100206.66;;;29.56;100.00
49377;BME280;35253;34.688;33.040;2023-08-06T00:53:46;100207.13;;;29.53;100.00
49377;BME280;35253;34.688;33.040;2023-08-06T00:56:12;100205.81;;;29.55;100.00
49377;BME280;35253;34.688;33.040;2023-08-06T00:58:39;100213.28;;;29.48;100.00
49377;BME280;35253;34.688;33.040;2023-08-06T01:01:05;100206.31;;;29.46;100.00
49377;BME280;35253;34.688;33.040;2023-08-06T01:03:30;100210.94;;;29.52;100.00
49377;BME280;35253;34.688;33.040;2023-08-06T01:05:56;100216.66;;;29.50;100.00
49377;BME280;35253;34.688;33.040;2023-08-06T01:11:25;100211.94;;;29.33;100.00
49377;BME280;35253;34.688;33.040;2023-08-06T01:14:02;100207.00;;;29.41;100.00
49377;BME280;35253;34.688;33.040;2023-08-06T01:16:32;100215.31;;;29.35;100.00
49377;BME280;35253;34.688;33.040;2023-08-06T01:18:58;100224.53;;;29.40;100.00
49377;BME280;35253;34.688;33.040;2023-08-06T01:21:24;100222.25;;;29.37;100.00
49377;BME280;35253;34.688;33.040;2023-08-06T01:23:50;100208.06;;;29.40;100.00
49377;BME280;35253;34.688;33.040;2023-08-06T01:29:06;100214.22;;;29.36;100.00
49377;BME280;35253;34.688;33.040;2023-08-06T01:31:37;100217.22;;;29.34;100.00
49377;BME280;35253;34.688;33.040;2023-08-06T01:34:07;100215.75;;;29.32;100.00
49377;BME280;35253;34.688;33.040;2023-08-06T01:36:35;100217.22;;;29.28;100.00
49377;BME280;35253;34.688;33.040;2023-08-06T01:39:01;100221.53;;;29.17;100.00
49377;BME280;35253;34.688;33.040;2023-08-06T01:41:27;100214.41;;;29.09;100.00
49377;BME280;35253;34.688;33.040;2023-08-06T01:43:53;100220.56;;;29.05;100.00
49377;BME280;35253;34.688;33.040;2023-08-06T01:46:18;100226.28;;;29.03;100.00
49377;BME280;35253;34.688;33.040;2023-08-06T01:48:44;100227.72;;;29.06;100.00
49377;BME280;35253;34.688;33.040;2023-08-06T01:51:09;100234.06;;;29.06;100.00
49377;BME280;35253;34.688;33.040;2023-08-06T01:53:35;100232.13;;;29.14;100.00
49377;BME280;35253;34.688;33.040;2023-08-06T01:56:01;100231.44;;;29.18;100.00
49377;BME280;35253;34.688;33.040;2023-08-06T01:58:26;100237.63;;;29.14;100.00
49377;BME280;35253;34.688;33.040;2023-08-06T02:00:52;100243.31;;;29.12;100.00
49377;BME280;35253;34.688;33.040;2023-08-06T02:03:18;100236.34;;;29.09;100.00
49377;BME280;35253;34.688;33.040;2023-08-06T02:05:43;100244.59;;;29.09;100.00
49377;BME280;35253;34.688;33.040;2023-08-06T02:08:09;100240.00;;;29.03;100.00
49377;BME280;35253;34.688;33.040;2023-08-06T02:10:35;100241.28;;;29.01;100.00
49377;BME280;35253;34.688;33.040;2023-08-06T02:13:01;100244.88;;;29.01;100.00
49377;BME280;35253;34.688;33.040;2023-08-06T02:15:26;100243.88;;;28.96;100.00
49377;BME280;35253;34.688;33.040;2023-08-06T02:17:52;100241.34;;;28.88;100.00
49377;BME280;35253;34.688;33.040;2023-08-06T02:20:17;100243.13;;;28.69;100.00
49377;BME280;35253;34.688;33.040;2023-08-06T02:22:43;100233.84;;;28.70;100.00
49377;BME280;35253;34.688;33.040;2023-08-06T02:25:09;100243.13;;;28.76;100.00
49377;BME280;35253;34.688;33.040;2023-08-06T02:27:34;100246.25;;;28.79;100.00
49377;BME280;35253;34.688;33.040;2023-08-06T02:30:00;100250.25;;;28.83;100.00
49377;BME280;35253;34.688;33.040;2023-08-06T02:32:26;100249.25;;;28.78;100.00
49377;BME280;35253;34.688;33.040;2023-08-06T02:34:51;100250.25;;;28.83;100.00
49377;BME280;35253;34.688;33.040;2023-08-06T02:37:17;100257.41;;;28.84;100.00
49377;BME280;35253;34.688;33.040;2023-08-06T02:39:43;100255.97;;;28.82;100.00
49377;BME280;35253;34.688;33.040;2023-08-06T02:42:08;100257.88;;;28.81;100.00
49377;BME280;35253;34.688;33.040;2023-08-06T02:44:35;100268.03;;;28.67;100.00
49377;BME280;35253;34.688;33.040;2023-08-06T02:47:01;100269.53;;;28.63;100.00
49377;BME280;35253;34.688;33.040;2023-08-06T02:49:26;100265.50;;;28.66;100.00
49377;BME280;35253;34.688;33.040;2023-08-06T02:51:52;100267.63;;;28.64;100.00
49377;BME280;35253;34.688;33.040;2023-08-06T02:54:18;100266.38;;;28.60;100.00
49377;BME280;35253;34.688;33.040;2023-08-06T02:56:45;100275.66;;;28.59;100.00
49377;BME280;35253;34.688;33.040;2023-08-06T02:59:12;100272.13;;;28.52;100.00
49377;BME280;35253;34.688;33.040;2023-08-06T03:01:38;100269.38;;;28.52;100.00
49377;BME280;35253;34.688;33.040;2023-08-06T03:04:04;100277.78;;;28.57;100.00
49377;BME280;35253;34.688;33.040;2023-08-06T03:06:30;100270.19;;;28.59;100.00
49377;BME280;35253;34.688;33.040;2023-08-06T03:08:55;100274.88;;;28.52;100.00
49377;BME280;35253;34.688;33.040;2023-08-06T03:11:21;100273.78;;;28.53;100.00
49377;BME280;35253;34.688;33.040;2023-08-06T03:13:47;100279.47;;;28.58;100.00
49377;BME280;35253;34.688;33.040;2023-08-06T03:16:13;100281.56;;;28.62;100.00
49377;BME280;35253;34.688;33.040;2023-08-06T03:18:39;100281.78;;;28.61;100.00
49377;BME280;35253;34.688;33.040;2023-08-06T03:21:04;100283.66;;;28.67;100.00
49377;BME280;35253;34.688;33.040;2023-08-06T03:23:30;100284.28;;;28.69;100.00
49377;BME280;35253;34.688;33.040;2023-08-06T03:25:56;100286.63;;;28.72;100.00
49377;BME280;35253;34.688;33.040;2023-08-06T03:28:22;100284.50;;;28.74;100.00
49377;BME280;35253;34.688;33.040;2023-08-06T03:30:48;100283.44;;;28.68;100.00
49377;BME280;35253;34.688;33.040;2023-08-06T03:33:13;100287.41;;;28.79;100.00
49377;BME280;35253;34.688;33.040;2023-08-06T03:35:39;100279.38;;;28.84;100.00
49377;BME280;35253;34.688;33.040;2023-08-06T03:38:05;100284.00;;;28.90;100.00
49377;BME280;35253;34.688;33.040;2023-08-06T03:40:31;100283.19;;;28.83;100.00
49377;BME280;35253;34.688;33.040;2023-08-06T03:42:56;100284.44;;;28.87;100.00
49377;BME280;35253;34.688;33.040;2023-08-06T03:45:22;100295.34;;;29.00;100.00
49377;BME280;35253;34.688;33.040;2023-08-06T03:47:48;100296.59;;;29.04;100.00
49377;BME280;35253;34.688;33.040;2023-08-06T03:50:13;100292.94;;;29.10;100.00
49377;BME280;35253;34.688;33.040;2023-08-06T03:52:39;100303.25;;;29.22;100.00
49377;BME280;35253;34.688;33.040;2023-08-06T03:55:05;100301.13;;;29.30;100.00
49377;BME280;35253;34.688;33.040;2023-08-06T03:57:31;100292.22;;;29.35;100.00
49377;BME280;35253;34.688;33.040;2023-08-06T03:59:56;100308.25;;;29.38;100.00
49377;BME280;35253;34.688;33.040;2023-08-06T04:02:23;100311.44;;;29.35;100.00
49377;BME280;35253;34.688;33.040;2023-08-06T04:04:49;100314.78;;;29.37;100.00
49377;BME280;35253;34.688;33.040;2023-08-06T04:07:14;100309.94;;;29.39;100.00
49377;BME280;35253;34.688;33.040;2023-08-06T04:10:00;100322.16;;;29.43;100.00
49377;BME280;35253;34.688;33.040;2023-08-06T04:12:26;100309.03;;;29.45;100.00
49377;BME280;35253;34.688;33.040;2023-08-06T04:14:52;100310.50;;;29.47;100.00
49377;BME280;35253;34.688;33.040;2023-08-06T04:17:18;100314.84;;;29.62;100.00
49377;BME280;35253;34.688;33.040;2023-08-06T04:19:51;100310.97;;;29.69;100.00
49377;BME280;35253;34.688;33.040;2023-08-06T04:22:18;100319.09;;;29.82;100.00
49377;BME280;35253;34.688;33.040;2023-08-06T04:24:43;100315.47;;;29.88;100.00
49377;BME280;35253;34.688;33.040;2023-08-06T04:27:13;100316.09;;;29.90;100.00
49377;BME280;35253;34.688;33.040;2023-08-06T04:29:38;100314.91;;;30.05;100.00
49377;BME280;35253;34.688;33.040;2023-08-06T04:32:09;100314.16;;;30.16;100.00
49377;BME280;35253;34.688;33.040;2023-08-06T04:34:35;100322.09;;;30.24;100.00
49377;BME280;35253;34.688;33.040;2023-08-06T04:37:02;100329.91;;;30.27;100.00
49377;BME280;35253;34.688;33.040;2023-08-06T04:39:28;100326.53;;;30.25;100.00
49377;BME280;35253;34.688;33.040;2023-08-06T04:41:56;100320.72;;;30.15;100.00
49377;BME280;35253;34.688;33.040;2023-08-06T04:44:22;100321.97;;;30.19;100.00
49377;BME280;35253;34.688;33.040;2023-08-06T04:46:48;100317.06;;;30.21;100.00
49377;BME280;35253;34.688;33.040;2023-08-06T04:49:14;100321.25;;;30.48;100.00
49377;BME280;35253;34.688;33.040;2023-08-06T04:51:40;100330.91;;;30.32;100.00
49377;BME280;35253;34.688;33.040;2023-08-06T04:54:06;100330.56;;;30.47;100.00
49377;BME280;35253;34.688;33.040;2023-08-06T04:56:31;100329.34;;;30.79;100.00
49377;BME280;35253;34.688;33.040;2023-08-06T04:58:58;100328.03;;;30.64;100.00
49377;BME280;35253;34.688;33.040;2023-08-06T05:01:24;100324.44;;;30.63;100.00
49377;BME280;35253;34.688;33.040;2023-08-06T05:03:49;100327.50;;;30.55;100.00
49377;BME280;35253;34.688;33.040;2023-08-06T05:06:15;100324.59;;;30.86;100.00
49377;BME280;35253;34.688;33.040;2023-08-06T05:08:40;100320.53;;;31.07;100.00
49377;BME280;35253;34.688;33.040;2023-08-06T05:11:06;100325.81;;;30.54;100.00
49377;BME280;35253;34.688;33.040;2023-08-06T05:13:32;100321.75;;;30.38;100.00
49377;BME280;35253;34.688;33.040;2023-08-06T05:15:58;100320.00;;;30.80;100.00
49377;BME280;35253;34.688;33.040;2023-08-06T05:18:23;100327.38;;;30.98;100.00
49377;BME280;35253;34.688;33.040;2023-08-06T05:20:49;100324.16;;;30.53;100.00
49377;BME280;35253;34.688;33.040;2023-08-06T05:23:15;100325.97;;;30.59;100.00
49377;BME280;35253;34.688;33.040;2023-08-06T05:25:40;100327.66;;;30.78;100.00
49377;BME280;35253;34.688;33.040;2023-08-06T05:28:06;100320.16;;;31.04;100.00
49377;BME280;35253;34.688;33.040;2023-08-06T05:30:32;100322.91;;;30.67;100.00
49377;BME280;35253;34.688;33.040;2023-08-06T05:32:57;100325.56;;;30.37;100.00
49377;BME280;35253;34.688;33.040;2023-08-06T05:35:23;100330.19;;;30.62;100.00
49377;BME280;35253;34.688;33.040;2023-08-06T05:37:50;100324.59;;;30.32;100.00
49377;BME280;35253;34.688;33.040;2023-08-06T05:40:16;100316.81;;;30.83;100.00
49377;BME280;35253;34.688;33.040;2023-08-06T05:42:41;100330.72;;;30.70;100.00
49377;BME280;35253;34.688;33.040;2023-08-06T05:45:08;100330.72;;;30.88;100.00
49377;BME280;35253;34.688;33.040;2023-08-06T05:47:34;100325.56;;;30.37;100.00
49377;BME280;35253;34.688;33.040;2023-08-06T05:49:59;100337.91;;;30.53;100.00
49377;BME280;35253;34.688;33.040;2023-08-06T05:52:25;100336.06;;;30.47;100.00
49377;BME280;35253;34.688;33.040;2023-08-06T05:54:50;100334.81;;;30.43;100.00
49377;BME280;35253;34.688;33.040;2023-08-06T05:57:17;100335.50;;;30.38;100.00
49377;BME280;35253;34.688;33.040;2023-08-06T05:59:43;100333.94;;;30.49;100.00
49377;BME280;35253;34.688;33.040;2023-08-06T06:02:08;100335.75;;;30.73;100.00
49377;BME280;35253;34.688;33.040;2023-08-06T06:04:34;100334.38;;;30.82;100.00
49377;BME280;35253;34.688;33.040;2023-08-06T06:07:00;100327.66;;;30.78;100.00
49377;BME280;35253;34.688;33.040;2023-08-06T06:09:25;100333.16;;;30.97;100.00
49377;BME280;35253;34.688;33.040;2023-08-06T06:11:51;100330.19;;;30.80;100.00
49377;BME280;35253;34.688;33.040;2023-08-06T06:14:18;100339.44;;;30.67;100.00
49377;BME280;35253;34.688;33.040;2023-08-06T06:16:44;100339.16;;;30.75;100.00
49377;BME280;35253;34.688;33.040;2023-08-06T06:19:10;100342.19;;;30.67;100.00
49377;BME280;35253;34.688;33.040;2023-08-06T06:21:36;100346.31;;;30.76;100.00
49377;BME280;35253;34.688;33.040;2023-08-06T06:24:03;100331.31;;;30.91;100.00
49377;BME280;35253;34.688;33.040;2023-08-06T06:26:30;100347.00;;;30.90;100.00
49377;BME280;35253;34.688;33.040;2023-08-06T06:28:55;100342.00;;;31.17;100.00
49377;BME280;35253;34.688;33.040;2023-08-06T06:31:21;100337.75;;;31.03;100.00
49377;BME280;35253;34.688;33.040;2023-08-06T06:33:46;100340.91;;;31.06;100.00
49377;BME280;35253;34.688;33.040;2023-08-06T06:36:12;100342.19;;;31.04;100.00
49377;BME280;35253;34.688;33.040;2023-08-06T06:38:38;100338.97;;;31.55;100.00
49377;BME280;35253;34.688;33.040;2023-08-06T06:41:04;100346.13;;;31.26;100.00
49377;BME280;35253;34.688;33.040;2023-08-06T06:43:29;100346.97;;;31.26;100.00
49377;BME280;35253;34.688;33.040;2023-08-06T06:46:01;100343.59;;;31.54;100.00
49377;BME280;35253;34.688;33.040;2023-08-06T06:48:29;100346.22;;;31.49;100.00
49377;BME280;35253;34.688;33.040;2023-08-06T06:50:55;100348.00;;;31.14;100.00
49377;BME280;35253;34.688;33.040;2023-08-06T06:53:21;100350.94;;;31.60;100.00
49377;BME280;35253;34.688;33.040;2023-08-06T06:55:55;100350.72;;;31.32;100.00
49377;BME280;35253;34.688;33.040;2023-08-06T06:58:21;100350.16;;;31.42;100.00
49377;BME280;35253;34.688;33.040;2023-08-06T07:00:48;100350.88;;;31.19;100.00
49377;BME280;35253;34.688;33.040;2023-08-06T07:03:16;100355.22;;;31.26;100.00
49377;BME280;35253;34.688;33.040;2023-08-06T07:05:44;100352.25;;;31.28;100.00
49377;BME280;35253;34.688;33.040;2023-08-06T07:08:09;100353.66;;;31.19;100.00
49377;BME280;35253;34.688;33.040;2023-08-06T07:10:35;100353.78;;;31.24;100.00
49377;BME280;35253;34.688;33.040;2023-08-06T07:13:01;100358.53;;;31.47;100.00
49377;BME280;35253;34.688;33.040;2023-08-06T07:15:26;100366.06;;;31.69;100.00
49377;BME280;35253;34.688;33.040;2023-08-06T07:17:52;100356.94;;;31.39;100.00
49377;BME280;35253;34.688;33.040;2023-08-06T07:20:18;100370.31;;;31.54;100.00
49377;BME280;35253;34.688;33.040;2023-08-06T07:22:44;100362.22;;;31.70;100.00
49377;BME280;35253;34.688;33.040;2023-08-06T07:25:10;100372.22;;;31.53;100.00
49377;BME280;35253;34.688;33.040;2023-08-06T07:27:35;100367.97;;;31.39;100.00
49377;BME280;35253;34.688;33.040;2023-08-06T07:30:01;100359.84;;;31.44;100.00
49377;BME280;35253;34.688;33.040;2023-08-06T07:32:27;100358.06;;;31.80;100.00
49377;BME280;35253;34.688;33.040;2023-08-06T07:34:55;100363.22;;;31.46;100.00
49377;BME280;35253;34.688;33.040;2023-08-06T07:37:25;100368.66;;;31.35;100.00
49377;BME280;35253;34.688;33.040;2023-08-06T07:39:50;100360.38;;;31.23;100.00
49377;BME280;35253;34.688;33.040;2023-08-06T07:42:16;100356.41;;;31.19;100.00
49377;BME280;35253;34.688;33.040;2023-08-06T07:44:42;100359.31;;;31.24;100.00
49377;BME280;35253;34.688;33.040;2023-08-06T07:47:07;100358.84;;;31.09;100.00
49377;BME280;35253;34.688;33.040;2023-08-06T07:49:33;100358.34;;;31.30;100.00
49377;BME280;35253;34.688;33.040;2023-08-06T07:51:58;100361.97;;;31.42;100.00
49377;BME280;35253;34.688;33.040;2023-08-06T07:54:24;100369.03;;;31.38;100.00
49377;BME280;35253;34.688;33.040;2023-08-06T07:56:50;100373.84;;;31.43;100.00
49377;BME280;35253;34.688;33.040;2023-08-06T07:59:15;100372.38;;;31.28;100.00
49377;BME280;35253;34.688;33.040;2023-08-06T08:01:42;100372.84;;;31.55;100.00
49377;BME280;35253;34.688;33.040;2023-08-06T08:04:07;100368.81;;;31.40;100.00
49377;BME280;35253;34.688;33.040;2023-08-06T08:06:33;100369.09;;;31.80;100.00
49377;BME280;35253;34.688;33.040;2023-08-06T08:08:59;100358.66;;;31.52;100.00
49377;BME280;35253;34.688;33.040;2023-08-06T08:11:26;100361.78;;;31.85;100.00
49377;BME280;35253;34.688;33.040;2023-08-06T08:13:51;100361.97;;;31.42;100.00
49377;BME280;35253;34.688;33.040;2023-08-06T08:16:17;100367.53;;;31.72;100.00
49377;BME280;35253;34.688;33.040;2023-08-06T08:18:43;100372.56;;;31.45;100.00
49377;BME280;35253;34.688;33.040;2023-08-06T08:21:08;100364.69;;;31.30;100.00
49377;BME280;35253;34.688;33.040;2023-08-06T08:23:34;100366.94;;;31.22;100.00
49377;BME280;35253;34.688;33.040;2023-08-06T08:25:59;100361.44;;;31.22;100.00
49377;BME280;35253;34.688;33.040;2023-08-06T08:28:27;100367.44;;;31.01;100.00
49377;BME280;35253;34.688;33.040;2023-08-06T08:30:53;100359.00;;;31.14;100.00
49377;BME280;35253;34.688;33.040;2023-08-06T08:33:18;100368.41;;;31.54;100.00
49377;BME280;35253;34.688;33.040;2023-08-06T08:35:45;100364.72;;;31.60;100.00
49377;BME280;35253;34.688;33.040;2023-08-06T08:38:11;100354.94;;;31.46;100.00
49377;BME280;35253;34.688;33.040;2023-08-06T08:40:41;100354.03;;;31.64;100.00
49377;BME280;35253;34.688;33.040;2023-08-06T08:43:11;100350.09;;;31.30;100.00
49377;BME280;35253;34.688;33.040;2023-08-06T08:45:39;100363.63;;;31.61;100.00
49377;BME280;35253;34.688;33.040;2023-08-06T08:48:06;100337.53;;;31.34;100.00
49377;BME280;35253;34.688;33.040;2023-08-06T08:50:32;100336.31;;;31.30;100.00
49377;BME280;35253;34.688;33.040;2023-08-06T08:52:58;100339.78;;;31.55;100.00
49377;BME280;35253;34.688;33.040;2023-08-06T08:55:24;100339.91;;;31.60;100.00
49377;BME280;35253;34.688;33.040;2023-08-06T08:57:50;100332.31;;;31.86;100.00
49377;BME280;35253;34.688;33.040;2023-08-06T09:00:16;100329.41;;;32.04;100.00
49377;BME280;35253;34.688;33.040;2023-08-06T09:02:44;100324.16;;;32.26;100.00
49377;BME280;35253;34.688;33.040;2023-08-06T09:05:11;100312.66;;;32.17;100.00
49377;BME280;35253;34.688;33.040;2023-08-06T09:07:48;100324.50;;;32.06;100.00
49377;BME280;35253;34.688;33.040;2023-08-06T09:10:16;100311.81;;;32.28;100.00
49377;BME280;35253;34.688;33.040;2023-08-06T09:12:47;100313.97;;;32.26;100.00
49377;BME280;35253;34.688;33.040;2023-08-06T09:15:13;100304.88;;;32.37;100.00
49377;BME280;35253;34.688;33.040;2023-08-06T09:17:39;100306.16;;;32.46;100.00
49377;BME280;35253;34.688;33.040;2023-08-06T09:20:15;100301.75;;;32.22;100.00
49377;BME280;35253;34.688;33.040;2023-08-06T09:22:41;100292.63;;;32.33;100.00
49377;BME280;35253;34.688;33.040;2023-08-06T09:25:07;100299.34;;;32.37;100.00
49377;BME280;35253;34.688;33.040;2023-08-06T09:27:37;100287.16;;;32.61;100.00
49377;BME280;35253;34.688;33.040;2023-08-06T09:30:04;100290.91;;;32.55;100.00
49377;BME280;35253;34.688;33.040;2023-08-06T09:32:46;100296.44;;;32.67;100.00
49377;BME280;35253;34.688;33.040;2023-08-06T09:35:16;100286.81;;;32.70;100.00
49377;BME280;35253;34.688;33.040;2023-08-06T09:37:42;100293.19;;;32.58;100.00
49377;BME280;35253;34.688;33.040;2023-08-06T09:40:29;100283.03;;;32.24;100.00
49377;BME280;35253;34.688;33.040;2023-08-06T09:42:55;100274.78;;;32.24;100.00
49377;BME280;35253;34.688;33.040;2023-08-06T09:45:22;100288.44;;;32.07;100.00
49377;BME280;35253;34.688;33.040;2023-08-06T09:47:50;100283.50;;;32.21;100.00
49377;BME280;35253;34.688;33.040;2023-08-06T09:50:20;100299.22;;;32.32;100.00
49377;BME280;35253;34.688;33.040;2023-08-06T09:52:47;100292.84;;;32.43;100.00
49377;BME280;35253;34.688;33.040;2023-08-06T09:55:14;100284.22;;;32.51;100.00
49377;BME280;35253;34.688;33.040;2023-08-06T09:57:40;100278.44;;;32.93;100.00
49377;BME280;35253;34.688;33.040;2023-08-06T10:00:10;100282.84;;;33.34;100.00
49377;BME280;35253;34.688;33.040;2023-08-06T10:02:40;100266.03;;;33.07;100.00
49377;BME280;35253;34.688;33.040;2023-08-06T10:05:07;100270.97;;;32.77;100.00
49377;BME280;35253;34.688;33.040;2023-08-06T10:07:34;100276.75;;;32.52;100.00
49377;BME280;35253;34.688;33.040;2023-08-06T10:10:00;100282.78;;;32.89;100.00
49377;BME280;35253;34.688;33.040;2023-08-06T10:12:29;100276.47;;;32.77;100.00
49377;BME280;35253;34.688;33.040;2023-08-06T10:14:57;100274.94;;;32.69;100.00
49377;BME280;35253;34.688;33.040;2023-08-06T10:17:25;100285.34;;;32.79;100.00
49377;BME280;35253;34.688;33.040;2023-08-06T10:19:52;100266.81;;;32.91;100.00
49377;BME280;35253;34.688;33.040;2023-08-06T10:22:20;100269.47;;;33.42;100.00
49377;BME280;35253;34.688;33.040;2023-08-06T10:24:57;100271.22;;;33.03;100.00
49377;BME280;35253;34.688;33.040;2023-08-06T10:27:29;100274.28;;;32.90;100.00
49377;BME280;35253;34.688;33.040;2023-08-06T10:30:24;100272.63;;;32.78;100.00
49377;BME280;35253;34.688;33.040;2023-08-06T10:32:51;100252.59;;;33.27;100.00
49377;BME280;35253;34.688;33.040;2023-08-06T10:35:43;100272.06;;;33.04;100.00
49377;BME280;35253;34.688;33.040;2023-08-06T10:38:11;100278.59;;;32.86;100.00
49377;BME280;35253;34.688;33.040;2023-08-06T10:40:40;100269.09;;;33.22;100.00
49377;BME280;35253;34.688;33.040;2023-08-06T10:43:06;100265.84;;;33.25;100.00
49377;BME280;35253;34.688;33.040;2023-08-06T10:45:35;100258.28;;;33.66;100.00
49377;BME280;35253;34.688;33.040;2023-08-06T10:48:01;100251.03;;;33.65;100.00
49377;BME280;35253;34.688;33.040;2023-08-06T10:50:26;100266.84;;;33.52;100.00
49377;BME280;35253;34.688;33.040;2023-08-06T10:52:52;100266.13;;;33.12;100.00
49377;BME280;35253;34.688;33.040;2023-08-06T10:55:29;100254.03;;;33.46;100.00
49377;BME280;35253;34.688;33.040;2023-08-06T10:57:55;100252.88;;;33.59;100.00
49377;BME280;35253;34.688;33.040;2023-08-06T11:00:22;100259.34;;;33.65;100.00
49377;BME280;35253;34.688;33.040;2023-08-06T11:02:52;100258.44;;;33.76;100.00
49377;BME280;35253;34.688;33.040;2023-08-06T11:05:18;100252.78;;;33.37;100.00
49377;BME280;35253;34.688;33.040;2023-08-06T11:07:44;100266.94;;;33.58;100.00
49377;BME280;35253;34.688;33.040;2023-08-06T11:10:12;100244.66;;;33.64;100.00
49377;BME280;35253;34.688;33.040;2023-08-06T11:12:38;100263.19;;;33.64;100.00
49377;BME280;35253;34.688;33.040;2023-08-06T11:15:04;100247.44;;;33.81;100.00
49377;BME280;35253;34.688;33.040;2023-08-06T11:17:32;100247.16;;;33.99;100.00
49377;BME280;35253;34.688;33.040;2023-08-06T11:20:04;100245.00;;;34.39;100.00
49377;BME280;35253;34.688;33.040;2023-08-06T11:22:30;100246.56;;;33.97;100.00
49377;BME280;35253;34.688;33.040;2023-08-06T11:24:56;100248.00;;;34.16;100.00
49377;BME280;35253;34.688;33.040;2023-08-06T11:27:22;100238.44;;;34.07;100.00
49377;BME280;35253;34.688;33.040;2023-08-06T11:29:48;100242.72;;;34.36;100.00
49377;BME280;35253;34.688;33.040;2023-08-06T11:32:14;100236.50;;;34.08;100.00
49377;BME280;35253;34.688;33.040;2023-08-06T11:34:40;100241.06;;;34.35;100.00
49377;BME280;35253;34.688;33.040;2023-08-06T11:37:07;100242.09;;;34.29;100.00
49377;BME280;35253;34.688;33.040;2023-08-06T11:39:33;100235.06;;;34.22;100.00
49377;BME280;35253;34.688;33.040;2023-08-06T11:42:00;100220.66;;;34.03;100.00
49377;BME280;35253;34.688;33.040;2023-08-06T11:44:32;100225.41;;;33.86;100.00
49377;BME280;35253;34.688;33.040;2023-08-06T11:46:59;100238.56;;;33.95;100.00
49377;BME280;35253;34.688;33.040;2023-08-06T11:52:20;100245.31;;;33.88;100.00
49377;BME280;35253;34.688;33.040;2023-08-06T11:55:02;100226.72;;;34.17;100.00
49377;BME280;35253;34.688;33.040;2023-08-06T11:57:30;100225.75;;;34.11;100.00
49377;BME280;35253;34.688;33.040;2023-08-06T12:00:13;100228.25;;;33.91;100.00
49377;BME280;35253;34.688;33.040;2023-08-06T12:02:44;100230.78;;;33.76;100.00
49377;BME280;35253;34.688;33.040;2023-08-06T12:05:20;100219.19;;;33.95;100.00
49377;BME280;35253;34.688;33.040;2023-08-06T12:07:55;100227.91;;;33.71;100.00
49377;BME280;35253;34.688;33.040;2023-08-06T12:10:22;100229.75;;;33.48;100.00
49377;BME280;35253;34.688;33.040;2023-08-06T12:12:49;100212.50;;;33.75;100.00
49377;BME280;35253;34.688;33.040;2023-08-06T12:15:15;100208.28;;;33.89;100.00
49377;BME280;35253;34.688;33.040;2023-08-06T12:17:41;100208.78;;;33.52;100.00
49377;BME280;35253;34.688;33.040;2023-08-06T12:20:08;100210.81;;;33.24;100.00
49377;BME280;35253;34.688;33.040;2023-08-06T12:22:34;100217.94;;;33.36;100.00
49377;BME280;35253;34.688;33.040;2023-08-06T12:25:02;100221.22;;;33.33;100.00
49377;BME280;35253;34.688;33.040;2023-08-06T12:27:29;100210.66;;;33.30;100.00
49377;BME280;35253;34.688;33.040;2023-08-06T12:29:54;100217.94;;;33.36;100.00
49377;BME280;35253;34.688;33.040;2023-08-06T12:32:20;100210.16;;;33.50;100.00
49377;BME280;35253;34.688;33.040;2023-08-06T12:34:47;100215.13;;;33.03;100.00
49377;BME280;35253;34.688;33.040;2023-08-06T12:37:13;100234.34;;;32.70;100.00